createdAt,value
2019-05-25T00:01:46.926Z,13.00
2019-05-25T00:05:10.925Z,13.00
2019-05-25T00:08:34.710Z,12.90
2019-05-25T00:11:58.488Z,13.00
2019-05-25T00:15:22.337Z,12.90
2019-05-25T00:18:46.164Z,12.90
2019-05-25T00:22:09.979Z,12.90
2019-05-25T00:25:33.820Z,12.90
2019-05-25T00:28:57.559Z,12.90
2019-05-25T00:32:21.456Z,12.80
2019-05-25T00:35:45.254Z,12.80
2019-05-25T00:39:09.006Z,12.80
2019-05-25T00:42:32.913Z,12.80
2019-05-25T00:45:56.976Z,12.80
2019-05-25T00:49:20.845Z,12.80
2019-05-25T00:52:44.658Z,12.70
2019-05-25T00:56:08.615Z,12.70
2019-05-25T00:59:32.569Z,12.70
2019-05-25T01:02:56.510Z,12.60
2019-05-25T01:06:20.744Z,12.60
2019-05-25T01:09:44.458Z,12.60
2019-05-25T01:13:08.438Z,12.60
2019-05-25T01:16:32.204Z,12.60
2019-05-25T01:19:56.105Z,12.60
2019-05-25T01:23:19.851Z,12.50
2019-05-25T01:26:43.674Z,12.30
2019-05-25T01:30:13.286Z,12.20
2019-05-25T01:33:37.760Z,12.00
2019-05-25T01:37:01.538Z,11.80
2019-05-25T01:40:25.407Z,11.50
2019-05-25T01:43:49.185Z,11.30
2019-05-25T01:47:13.178Z,11.00
2019-05-25T01:50:36.923Z,10.90
2019-05-25T01:54:00.838Z,10.70
2019-05-25T01:57:24.648Z,10.40
2019-05-25T02:00:48.544Z,10.30
2019-05-25T02:04:12.423Z,10.10
2019-05-25T02:07:36.188Z,10.00
2019-05-25T02:10:59.971Z,9.80
2019-05-25T02:14:23.831Z,9.80
2019-05-25T02:17:47.570Z,9.60
2019-05-25T02:21:11.319Z,9.50
2019-05-25T02:24:35.046Z,9.40
2019-05-25T02:27:58.849Z,9.30
2019-05-25T02:31:22.605Z,9.30
2019-05-25T02:34:46.462Z,9.30
2019-05-25T02:38:10.249Z,9.20
2019-05-25T02:41:34.118Z,9.00
2019-05-25T02:44:57.879Z,9.00
2019-05-25T02:48:21.908Z,9.00
2019-05-25T02:51:45.712Z,8.90
2019-05-25T02:55:11.737Z,9.00
2019-05-25T02:58:35.485Z,9.00
2019-05-25T03:01:59.825Z,9.00
2019-05-25T03:05:23.543Z,8.90
2019-05-25T03:08:49.186Z,8.90
2019-05-25T03:12:13.343Z,8.90
2019-05-25T03:15:37.091Z,9.00
2019-05-25T03:19:00.927Z,9.00
2019-05-25T03:22:24.748Z,9.00
2019-05-25T03:25:50.052Z,9.10
2019-05-25T03:29:13.873Z,9.10
2019-05-25T03:32:37.706Z,9.20
2019-05-25T03:36:01.676Z,9.40
2019-05-25T03:39:25.457Z,9.50
2019-05-25T03:42:49.293Z,9.60
2019-05-25T03:46:13.157Z,9.60
2019-05-25T03:49:36.997Z,9.70
2019-05-25T03:53:00.835Z,9.80
2019-05-25T03:56:24.598Z,9.90
2019-05-25T03:59:48.541Z,10.00
2019-05-25T04:03:12.409Z,10.10
2019-05-25T04:06:36.234Z,10.30
2019-05-25T04:09:59.983Z,10.40
2019-05-25T04:13:23.818Z,10.50
2019-05-25T04:16:47.858Z,10.70
2019-05-25T04:20:11.804Z,10.80
2019-05-25T04:23:35.709Z,11.00
2019-05-25T04:26:59.436Z,11.20
2019-05-25T04:30:23.393Z,11.40
2019-05-25T04:33:47.241Z,11.60
2019-05-25T04:37:11.061Z,11.80
2019-05-25T04:40:34.883Z,12.10
2019-05-25T04:43:59.623Z,12.40
2019-05-25T04:47:27.031Z,12.50
2019-05-25T04:50:49.618Z,12.70
2019-05-25T04:54:13.386Z,12.90
2019-05-25T04:57:37.195Z,13.10
2019-05-25T05:01:01.094Z,13.30
2019-05-25T05:04:24.895Z,13.40
2019-05-25T05:07:48.840Z,13.60
2019-05-25T05:11:12.567Z,13.70
2019-05-25T05:14:36.502Z,13.80
2019-05-25T05:18:01.569Z,13.90
2019-05-25T05:21:25.391Z,14.00
2019-05-25T05:24:49.266Z,14.10
2019-05-25T05:28:13.152Z,14.30
2019-05-25T05:31:37.010Z,14.50
2019-05-25T05:35:00.758Z,14.70
2019-05-25T05:38:25.278Z,14.80
2019-05-25T05:41:50.430Z,15.00
2019-05-25T05:45:16.521Z,15.10
2019-05-25T05:48:43.027Z,15.40
2019-05-25T05:52:07.240Z,15.60
2019-05-25T05:55:32.423Z,15.80
2019-05-25T05:58:56.293Z,16.10
2019-05-25T06:02:20.131Z,16.40
2019-05-25T06:05:44.341Z,16.90
2019-05-25T06:09:08.465Z,17.40
2019-05-25T06:12:32.271Z,17.80
2019-05-25T06:15:56.269Z,17.90
2019-05-25T06:19:20.181Z,17.80
2019-05-25T06:22:44.079Z,17.60
2019-05-25T06:26:07.951Z,17.60
2019-05-25T06:29:31.663Z,17.50
2019-05-25T06:32:55.593Z,17.40
2019-05-25T06:36:19.493Z,17.40
2019-05-25T06:39:43.241Z,17.60
2019-05-25T06:43:07.204Z,17.40
2019-05-25T06:46:31.111Z,17.50
2019-05-25T06:49:54.969Z,17.70
2019-05-25T06:53:18.883Z,17.80
2019-05-25T06:56:42.661Z,17.70
2019-05-25T07:00:10.409Z,18.10
2019-05-25T07:03:34.323Z,18.40
2019-05-25T07:06:58.369Z,18.60
2019-05-25T07:10:22.557Z,18.70
2019-05-25T07:13:46.791Z,18.20
2019-05-25T07:17:10.701Z,18.30
2019-05-25T07:20:34.709Z,18.50
2019-05-25T07:23:58.595Z,18.60
2019-05-25T07:27:22.610Z,19.00
2019-05-25T07:30:46.798Z,20.30
2019-05-25T07:34:10.752Z,23.60
2019-05-25T07:37:34.581Z,28.30
2019-05-25T07:40:58.457Z,30.00
2019-05-25T07:44:22.440Z,30.60
2019-05-25T07:47:46.135Z,36.20
2019-05-25T07:51:10.090Z,36.20
2019-05-25T07:54:33.962Z,37.30
2019-05-25T07:57:57.759Z,37.10
2019-05-25T08:01:21.697Z,38.20
2019-05-25T08:04:45.620Z,41.50
2019-05-25T08:08:09.384Z,39.80
2019-05-25T08:11:33.271Z,38.10
2019-05-25T08:14:57.118Z,38.60
2019-05-25T08:18:20.955Z,41.00
2019-05-25T08:21:45.016Z,43.40
2019-05-25T08:25:09.515Z,44.20
2019-05-25T08:28:33.705Z,44.20
2019-05-25T08:31:57.535Z,46.30
2019-05-25T08:35:22.080Z,45.10
2019-05-25T08:38:46.775Z,45.80
2019-05-25T08:42:10.766Z,46.80
2019-05-25T08:45:34.583Z,47.60
2019-05-25T08:48:58.471Z,49.20
2019-05-25T08:52:22.203Z,45.30
2019-05-25T08:55:46.038Z,46.20
2019-05-25T08:59:09.811Z,45.70
2019-05-25T09:02:34.064Z,48.50
2019-05-25T09:05:57.966Z,48.80
2019-05-25T09:09:21.843Z,50.60
2019-05-25T09:12:45.695Z,50.40
2019-05-25T09:16:09.519Z,51.70
2019-05-25T09:19:33.308Z,49.50
2019-05-25T09:22:57.023Z,49.10
2019-05-25T09:26:20.877Z,46.80
2019-05-25T09:29:44.865Z,44.90
2019-05-25T09:33:09.078Z,47.30
2019-05-25T09:36:33.160Z,50.70
2019-05-25T09:39:57.172Z,53.60
2019-05-25T09:43:21.304Z,55.10
2019-05-25T09:46:46.858Z,48.50
2019-05-25T09:50:11.389Z,49.90
2019-05-25T09:53:35.320Z,49.70
2019-05-25T09:56:59.325Z,50.10
2019-05-25T10:00:23.183Z,51.60
2019-05-25T10:03:47.429Z,54.20
2019-05-25T10:07:11.362Z,46.00
2019-05-25T10:10:35.302Z,44.00
2019-05-25T10:13:59.206Z,44.60
2019-05-25T10:17:23.091Z,42.80
2019-05-25T10:20:46.963Z,43.20
2019-05-25T10:24:10.726Z,45.90
2019-05-25T10:27:34.502Z,48.80
2019-05-25T10:30:58.294Z,46.60
2019-05-25T10:34:22.539Z,49.60
2019-05-25T10:37:46.374Z,47.20
2019-05-25T10:41:10.394Z,47.10
2019-05-25T10:44:34.562Z,47.60
2019-05-25T10:47:58.433Z,49.50
2019-05-25T10:51:22.238Z,45.90
2019-05-25T10:54:46.081Z,42.60
2019-05-25T10:58:09.965Z,35.90
2019-05-25T11:01:33.843Z,43.90
2019-05-25T11:04:57.680Z,47.90
2019-05-25T11:08:21.707Z,47.50
2019-05-25T11:11:45.602Z,43.90
2019-05-25T11:15:10.000Z,37.70
2019-05-25T11:18:34.005Z,35.90
2019-05-25T11:21:57.750Z,31.00
2019-05-25T11:25:21.861Z,32.70
2019-05-25T11:28:45.848Z,34.50
2019-05-25T11:32:09.883Z,31.90
2019-05-25T11:35:33.771Z,31.40
2019-05-25T11:38:58.594Z,35.90
2019-05-25T11:42:22.421Z,40.50
2019-05-25T11:45:46.173Z,35.90
2019-05-25T11:49:22.124Z,33.80
2019-05-25T11:52:35.871Z,30.10
2019-05-25T11:55:59.714Z,29.90
2019-05-25T11:59:23.554Z,33.70
2019-05-25T12:02:47.369Z,35.80
2019-05-25T12:06:11.164Z,37.60
2019-05-25T12:09:34.944Z,37.70
2019-05-25T12:12:59.179Z,38.60
2019-05-25T12:16:23.070Z,36.00
2019-05-25T12:19:46.897Z,34.30
2019-05-25T12:23:10.949Z,36.30
2019-05-25T12:26:34.883Z,36.30
2019-05-25T12:29:58.632Z,34.00
2019-05-25T12:33:23.491Z,34.60
2019-05-25T12:36:47.177Z,35.90
2019-05-25T12:40:11.473Z,34.80
2019-05-25T12:43:35.306Z,34.50
2019-05-25T12:46:59.376Z,34.60
2019-05-25T12:50:23.756Z,33.20
2019-05-25T12:53:47.795Z,32.50
2019-05-25T12:57:12.245Z,34.10
2019-05-25T13:00:36.123Z,33.90
2019-05-25T13:04:00.569Z,32.20
2019-05-25T13:07:24.411Z,29.10
2019-05-25T13:10:48.219Z,27.30
2019-05-25T13:14:14.887Z,28.20
2019-05-25T13:17:38.405Z,30.10
2019-05-25T13:21:02.289Z,28.60
2019-05-25T13:24:26.382Z,27.30
2019-05-25T13:27:50.468Z,25.70
2019-05-25T13:31:14.257Z,25.90
2019-05-25T13:34:38.341Z,27.00
2019-05-25T13:38:02.250Z,27.50
2019-05-25T13:41:26.133Z,25.80
2019-05-25T13:44:50.068Z,25.90
2019-05-25T13:48:13.966Z,26.40
2019-05-25T13:51:37.739Z,25.20
2019-05-25T13:55:01.476Z,25.30
2019-05-25T13:58:25.285Z,24.40
2019-05-25T14:01:49.161Z,24.30
2019-05-25T14:05:13.419Z,24.10
2019-05-25T14:08:37.300Z,24.00
2019-05-25T14:12:01.228Z,24.40
2019-05-25T14:15:25.049Z,24.60
2019-05-25T14:18:51.376Z,25.30
2019-05-25T14:22:15.265Z,25.10
2019-05-25T14:25:40.038Z,25.40
2019-05-25T14:29:04.050Z,25.00
2019-05-25T14:32:29.043Z,25.20
2019-05-25T14:35:53.776Z,25.10
2019-05-25T14:39:19.030Z,24.30
2019-05-25T14:42:42.949Z,24.30
2019-05-25T14:46:06.715Z,24.10
2019-05-25T14:49:30.585Z,23.90
2019-05-25T14:52:54.555Z,23.40
2019-05-25T14:56:18.419Z,23.20
2019-05-25T14:59:42.245Z,23.70
2019-05-25T15:03:06.154Z,24.20
2019-05-25T15:06:30.078Z,24.70
2019-05-25T15:09:55.476Z,23.70
2019-05-25T15:13:20.298Z,23.00
2019-05-25T15:16:44.358Z,22.70
2019-05-25T15:20:09.216Z,22.30
2019-05-25T15:23:33.204Z,22.10
2019-05-25T15:26:57.365Z,21.70
2019-05-25T15:30:21.559Z,21.50
2019-05-25T15:33:45.439Z,21.50
2019-05-25T15:37:09.349Z,21.40
2019-05-25T15:40:33.859Z,21.40
2019-05-25T15:43:57.717Z,21.30
2019-05-25T15:47:21.821Z,21.10
2019-05-25T15:50:45.633Z,20.90
2019-05-25T15:54:10.711Z,20.80
2019-05-25T15:57:34.718Z,20.80
2019-05-25T16:00:58.538Z,20.90
2019-05-25T16:04:22.353Z,21.00
2019-05-25T16:07:49.176Z,21.00
2019-05-25T16:11:13.005Z,20.80
2019-05-25T16:14:36.870Z,21.20
2019-05-25T16:18:00.838Z,21.20
2019-05-25T16:21:24.733Z,21.20
2019-05-25T16:24:48.602Z,21.00
2019-05-25T16:28:12.563Z,20.90
2019-05-25T16:31:36.588Z,20.40
2019-05-25T16:35:00.414Z,19.90
2019-05-25T16:38:24.659Z,19.50
2019-05-25T16:41:48.588Z,19.20
2019-05-25T16:45:12.485Z,19.10
2019-05-25T16:48:36.566Z,18.90
2019-05-25T16:52:00.472Z,18.80
2019-05-25T16:55:24.355Z,18.70
2019-05-25T16:58:48.138Z,18.60
2019-05-25T17:02:11.976Z,18.60
2019-05-25T17:05:36.100Z,18.50
2019-05-25T17:09:00.234Z,18.50
2019-05-25T17:12:24.770Z,18.40
2019-05-25T17:15:48.601Z,18.30
2019-05-25T17:19:12.433Z,18.20
2019-05-25T17:22:36.377Z,18.20
2019-05-25T17:26:00.473Z,18.10
2019-05-25T17:29:24.242Z,17.90
2019-05-25T17:32:48.084Z,17.80
2019-05-25T17:36:13.175Z,17.50
2019-05-25T17:39:37.358Z,17.30
2019-05-25T17:43:01.226Z,17.20
2019-05-25T17:46:25.064Z,17.00
2019-05-25T17:49:49.005Z,16.90
2019-05-25T17:53:13.054Z,16.60
2019-05-25T17:56:36.948Z,16.50
2019-05-25T18:00:00.833Z,16.40
2019-05-25T18:03:24.887Z,16.30
2019-05-25T18:06:48.719Z,16.30
2019-05-25T18:10:12.933Z,16.20
2019-05-25T18:13:36.902Z,16.00
2019-05-25T18:17:01.097Z,15.90
2019-05-25T18:20:26.586Z,15.70
2019-05-25T18:23:50.433Z,15.60
2019-05-25T18:27:14.601Z,15.40
2019-05-25T18:30:39.119Z,15.20
2019-05-25T18:34:03.455Z,15.10
2019-05-25T18:37:27.915Z,15.00
2019-05-25T18:40:52.153Z,14.90
2019-05-25T18:44:17.664Z,14.90
2019-05-25T18:47:44.707Z,14.80
2019-05-25T18:51:09.085Z,14.70
2019-05-25T18:54:33.632Z,14.50
2019-05-25T18:57:57.602Z,14.30
2019-05-25T19:01:21.435Z,14.30
2019-05-25T19:04:58.031Z,14.10
2019-05-25T19:08:11.274Z,14.00
2019-05-25T19:11:35.928Z,13.90
2019-05-25T19:15:00.168Z,13.80
2019-05-25T19:18:24.003Z,13.70
2019-05-25T19:21:47.907Z,13.70
2019-05-25T19:25:12.603Z,13.50
2019-05-25T19:28:36.620Z,13.30
2019-05-25T19:32:00.598Z,13.20
2019-05-25T19:35:24.653Z,13.10
2019-05-25T19:38:49.046Z,12.90
2019-05-25T19:42:12.987Z,12.80
2019-05-25T19:45:36.709Z,12.80
2019-05-25T19:49:00.860Z,12.60
2019-05-25T19:52:24.678Z,12.40
2019-05-25T19:55:48.479Z,12.30
2019-05-25T19:59:12.460Z,12.20
2019-05-25T20:02:36.200Z,12.20
2019-05-25T20:06:00.003Z,12.10
2019-05-25T20:09:24.790Z,12.00
2019-05-25T20:12:48.811Z,12.00
2019-05-25T20:16:12.888Z,11.90
2019-05-25T20:19:37.316Z,11.90
2019-05-25T20:23:01.822Z,11.90
2019-05-25T20:26:25.625Z,11.80
2019-05-25T20:29:49.513Z,11.70
2019-05-25T20:33:23.104Z,11.50
2019-05-25T20:36:39.102Z,11.40
2019-05-25T20:40:04.045Z,11.30
2019-05-25T20:43:28.102Z,11.30
2019-05-25T20:46:52.647Z,11.20
2019-05-25T20:50:16.836Z,11.20
2019-05-25T20:53:40.528Z,11.10
2019-05-25T20:57:05.482Z,11.10
2019-05-25T21:00:29.343Z,11.10
2019-05-25T21:03:53.408Z,11.00
2019-05-25T21:07:17.433Z,11.00
2019-05-25T21:10:41.183Z,10.90
2019-05-25T21:14:05.584Z,10.90
2019-05-25T21:17:29.413Z,10.90
2019-05-25T21:20:53.388Z,10.80
2019-05-25T21:24:17.393Z,10.70
2019-05-25T21:27:41.256Z,10.60
2019-05-25T21:31:05.072Z,10.60
2019-05-25T21:34:29.363Z,10.50
2019-05-25T21:37:53.504Z,10.50
2019-05-25T21:41:17.388Z,10.50
2019-05-25T21:44:41.591Z,10.40
2019-05-25T21:48:06.868Z,10.40
2019-05-25T21:51:30.736Z,10.40
2019-05-25T21:54:54.545Z,10.30
2019-05-25T21:58:18.429Z,10.30
2019-05-25T22:01:42.324Z,10.30
2019-05-25T22:05:06.578Z,10.10
2019-05-25T22:08:30.497Z,10.00
2019-05-25T22:11:54.306Z,10.10
2019-05-25T22:15:18.235Z,10.00
2019-05-25T22:18:42.225Z,9.90
2019-05-25T22:22:06.220Z,10.00
2019-05-25T22:25:30.220Z,9.90
2019-05-25T22:28:54.148Z,9.90
2019-05-25T22:32:18.172Z,9.80
2019-05-25T22:35:42.056Z,9.70
2019-05-25T22:39:08.260Z,9.90
2019-05-25T22:42:32.478Z,10.10
2019-05-25T22:45:56.320Z,10.30
2019-05-25T22:49:20.441Z,10.50
2019-05-25T22:52:44.312Z,10.70
2019-05-25T22:56:08.214Z,10.80
2019-05-25T22:59:31.949Z,10.70
2019-05-25T23:02:55.851Z,10.70
2019-05-25T23:06:19.600Z,10.60
2019-05-25T23:09:43.493Z,10.50
2019-05-25T23:13:07.581Z,10.40
2019-05-25T23:16:31.600Z,10.40
2019-05-25T23:19:55.475Z,10.30
2019-05-25T23:23:19.318Z,10.20
2019-05-25T23:26:43.154Z,10.10
2019-05-25T23:30:07.664Z,10.00
2019-05-25T23:33:31.443Z,10.00
2019-05-25T23:36:55.258Z,10.10
2019-05-25T23:40:19.444Z,10.30
2019-05-25T23:43:43.354Z,10.40
2019-05-25T23:47:07.196Z,10.40
2019-05-25T23:50:31.077Z,10.50
2019-05-25T23:53:54.848Z,10.60
2019-05-25T23:57:18.645Z,10.70
